Time;durP1;ratioP1;P1;durP2;ratioP2;P2;SDS_P1;SDS_P2;PMS_P1;PMS_P2;Temp;Humidity;BMP_temperature;BMP_pressure;BME280_temperature;BME280_humidity;BME280_pressure;Samples;Min_cycle;Max_cycle;Signal;HPM_P1;HPM_P2
2023/07/09 00:00:18;;;;;;;;;;;;;;;;;;4947790;29;19938;-80
2023/07/09 00:02:47;;;;;;;;;;;;;;;;;;4960699;28;19934;-80
2023/07/09 00:05:14;;;;;;;;;;;;;;;;;;4938589;29;19938;-81
2023/07/09 00:07:42;;;;;;;;;;;;;;;;;;4947256;29;19937;-81
2023/07/09 00:10:09;;;;;;;;;;;;;;;;;;4946169;29;19935;-80
2023/07/09 00:12:37;;;;;;;;;;;;;;;;;;4948195;29;20483;-81
2023/07/09 00:15:04;;;;;;;;;;;;;;;;;;4962456;28;19930;-80
2023/07/09 00:17:33;;;;;;;;;;;;;;;;;;4939710;29;19930;-81
2023/07/09 00:20:00;;;;;;;;;;;;;;;;;;4947262;29;19941;-80
2023/07/09 00:22:28;;;;;;;;;;;;;;;;;;4948345;29;20403;-79
2023/07/09 00:24:56;;;;;;;;;;;;;;;;;;4948275;29;19934;-81
2023/07/09 00:27:29;;;;;;;;;;;;;;;;;;4947005;29;20291;-80
2023/07/09 00:29:56;;;;;;;;;;;;;;;;;;4948425;29;19937;-81
2023/07/09 00:32:29;;;;;;;;;;;;;;;;;;4960136;28;20472;-80
2023/07/09 00:35:04;;;;;;;;;;;;;;;;;;4938613;29;19937;-80
2023/07/09 00:37:32;;;;;;;;;;;;;;;;;;4960641;28;19931;-80
2023/07/09 00:40:04;;;;;;;;;;;;;;;;;;4943932;29;20368;-81
2023/07/09 00:42:32;;;;;;;;;;;;;;;;;;4943848;29;19941;-80
2023/07/09 00:45:00;;;;;;;;;;;;;;;;;;4961432;28;19930;-80
2023/07/09 00:47:27;;;;;;;;;;;;;;;;;;4947390;29;19930;-80
2023/07/09 00:49:57;;;;;;;;;;;;;;;;;;4948023;29;20276;-80
2023/07/09 00:52:33;;;;;;;;;;;;;;;;;;4944178;29;19931;-81
2023/07/09 00:55:00;;;;;;;;;;;;;;;;;;4947869;29;19941;-80
2023/07/09 00:57:28;;;;;;;;;;;;;;;;;;4945560;28;19938;-79
2023/07/09 00:59:55;;;;;;;;;;;;;;;;;;4947718;29;19930;-80
2023/07/09 01:02:24;;;;;;;;;;;;;;;;;;4941606;29;20300;-80
2023/07/09 01:04:56;;;;;;;;;;;;;;;;;;4948847;29;19961;-80
2023/07/09 01:07:24;;;;;;;;;;;;;;;;;;4958224;28;19931;-80
2023/07/09 01:09:56;;;;;;;;;;;;;;;;;;4950105;29;20367;-81
2023/07/09 01:12:24;;;;;;;;;;;;;;;;;;4951253;29;19938;-81
2023/07/09 01:14:51;;;;;;;;;;;;;;;;;;4957844;28;19930;-80
2023/07/09 01:17:19;;;;;;;;;;;;;;;;;;4947804;29;19926;-80
2023/07/09 01:19:47;;;;;;;;;;;;;;;;;;4947842;29;20443;-81
2023/07/09 01:22:15;;;;;;;;;;;;;;;;;;4949961;29;19937;-80
2023/07/09 01:24:42;;;;;;;;;;;;;;;;;;4965389;28;19931;-81
2023/07/09 01:27:10;;;;;;;;;;;;;;;;;;4940878;29;19930;-81
2023/07/09 01:29:42;;;;;;;;;;;;;;;;;;4951319;29;19931;-81
2023/07/09 01:32:11;;;;;;;;;;;;;;;;;;4963926;28;19926;-80
2023/07/09 01:34:39;;;;;;;;;;;;;;;;;;4964555;28;19930;-80
2023/07/09 01:37:11;;;;;;;;;;;;;;;;;;4951352;29;19927;-80
2023/07/09 01:39:44;;;;;;;;;;;;;;;;;;4941841;28;19937;-80
2023/07/09 01:42:12;;;;;;;;;;;;;;;;;;4939070;29;19977;-80
2023/07/09 01:44:40;;;;;;;;;;;;;;;;;;4946844;29;19930;-80
2023/07/09 01:47:10;;;;;;;;;;;;;;;;;;4947168;29;19957;-80
2023/07/09 01:49:39;;;;;;;;;;;;;;;;;;4949502;29;19927;-80
2023/07/09 01:52:08;;;;;;;;;;;;;;;;;;4947214;28;19942;-80
2023/07/09 01:54:40;;;;;;;;;;;;;;;;;;4946955;29;20831;-81
2023/07/09 01:57:13;;;;;;;;;;;;;;;;;;4941150;29;19937;-80
2023/07/09 01:59:42;;;;;;;;;;;;;;;;;;4957967;28;20659;-80
2023/07/09 02:02:18;;;;;;;;;;;;;;;;;;4946310;29;20375;-80
2023/07/09 02:04:51;;;;;;;;;;;;;;;;;;4946335;29;19933;-80
2023/07/09 02:07:23;;;;;;;;;;;;;;;;;;4950163;29;20328;-80
2023/07/09 02:09:51;;;;;;;;;;;;;;;;;;4952754;28;19937;-80
2023/07/09 02:12:18;;;;;;;;;;;;;;;;;;4963693;28;19954;-80
2023/07/09 02:14:46;;;;;;;;;;;;;;;;;;4947747;29;19993;-80
2023/07/09 02:17:13;;;;;;;;;;;;;;;;;;4962113;28;19993;-80
2023/07/09 02:19:41;;;;;;;;;;;;;;;;;;4949652;29;19941;-80
2023/07/09 02:22:08;;;;;;;;;;;;;;;;;;4954966;28;19930;-80
2023/07/09 02:24:36;;;;;;;;;;;;;;;;;;4949611;29;19937;-80
2023/07/09 02:27:10;;;;;;;;;;;;;;;;;;4946549;29;20485;-80
2023/07/09 02:29:38;;;;;;;;;;;;;;;;;;4947506;29;20582;-81
2023/07/09 02:32:05;;;;;;;;;;;;;;;;;;4949596;29;20299;-80
2023/07/09 02:34:35;;;;;;;;;;;;;;;;;;4943663;28;20415;-80
2023/07/09 02:37:02;;;;;;;;;;;;;;;;;;4964126;28;19930;-80
2023/07/09 02:39:30;;;;;;;;;;;;;;;;;;4963004;28;20185;-80
2023/07/09 02:41:57;;;;;;;;;;;;;;;;;;4949484;29;20949;-81
2023/07/09 02:44:25;;;;;;;;;;;;;;;;;;4946184;29;20927;-80
2023/07/09 02:46:53;;;;;;;;;;;;;;;;;;4962524;28;19941;-80
2023/07/09 02:49:25;;;;;;;;;;;;;;;;;;4948242;29;19934;-79
2023/07/09 02:51:58;;;;;;;;;;;;;;;;;;4939461;29;19950;-80
2023/07/09 02:54:25;;;;;;;;;;;;;;;;;;4962235;28;19931;-80
2023/07/09 02:56:53;;;;;;;;;;;;;;;;;;4939138;29;19930;-80
2023/07/09 02:59:27;;;;;;;;;;;;;;;;;;4948793;29;19941;-80
2023/07/09 03:01:55;;;;;;;;;;;;;;;;;;4947796;29;19938;-80
2023/07/09 03:04:27;;;;;;;;;;;;;;;;;;4946151;29;20307;-81
2023/07/09 03:06:55;;;;;;;;;;;;;;;;;;4946715;28;19938;-80
2023/07/09 03:09:23;;;;;;;;;;;;;;;;;;4948543;29;19941;-80
2023/07/09 03:11:50;;;;;;;;;;;;;;;;;;4945078;29;20619;-80
2023/07/09 03:14:23;;;;;;;;;;;;;;;;;;4947821;29;20902;-81
2023/07/09 03:16:56;;;;;;;;;;;;;;;;;;4945098;29;19938;-79
2023/07/09 03:19:23;;;;;;;;;;;;;;;;;;4961972;28;19927;-81
2023/07/09 03:21:51;;;;;;;;;;;;;;;;;;4951095;28;20926;-80
2023/07/09 03:24:19;;;;;;;;;;;;;;;;;;4948054;29;19953;-81
2023/07/09 03:26:46;;;;;;;;;;;;;;;;;;4947254;29;19934;-81
2023/07/09 03:29:19;;;;;;;;;;;;;;;;;;4944264;29;19937;-80
2023/07/09 03:31:46;;;;;;;;;;;;;;;;;;4945769;29;19995;-81
2023/07/09 03:34:14;;;;;;;;;;;;;;;;;;4937348;29;20402;-80
2023/07/09 03:36:42;;;;;;;;;;;;;;;;;;4940315;29;19931;-81
2023/07/09 03:39:09;;;;;;;;;;;;;;;;;;4947055;29;19930;-82
2023/07/09 03:41:42;;;;;;;;;;;;;;;;;;4946855;29;19931;-80
2023/07/09 03:44:10;;;;;;;;;;;;;;;;;;4946578;29;20723;-80
2023/07/09 03:46:42;;;;;;;;;;;;;;;;;;4946667;29;19933;-80
2023/07/09 03:49:10;;;;;;;;;;;;;;;;;;4938591;29;19942;-80
2023/07/09 03:51:37;;;;;;;;;;;;;;;;;;4947231;29;20409;-81
2023/07/09 03:54:10;;;;;;;;;;;;;;;;;;4948396;29;19930;-80
2023/07/09 03:56:42;;;;;;;;;;;;;;;;;;4958304;28;19930;-80
2023/07/09 03:59:15;;;;;;;;;;;;;;;;;;4941150;29;20426;-81
2023/07/09 04:01:48;;;;;;;;;;;;;;;;;;4946735;29;19930;-80
2023/07/09 04:04:20;;;;;;;;;;;;;;;;;;4948032;29;20303;-80
2023/07/09 04:06:52;;;;;;;;;;;;;;;;;;4961451;28;20417;-81
2023/07/09 04:09:20;;;;;;;;;;;;;;;;;;4947873;29;19938;-80
2023/07/09 04:11:47;;;;;;;;;;;;;;;;;;4934951;29;20406;-81
2023/07/09 04:14:15;;;;;;;;;;;;;;;;;;4945689;29;19931;-81
2023/07/09 04:16:48;;;;;;;;;;;;;;;;;;4944471;29;20291;-80
2023/07/09 04:19:15;;;;;;;;;;;;;;;;;;4947086;29;19931;-81
2023/07/09 04:21:43;;;;;;;;;;;;;;;;;;4951548;28;19931;-80
2023/07/09 04:24:15;;;;;;;;;;;;;;;;;;4947968;29;19937;-81
2023/07/09 04:26:43;;;;;;;;;;;;;;;;;;4954471;28;19927;-80
2023/07/09 04:29:10;;;;;;;;;;;;;;;;;;4945629;29;20370;-80
2023/07/09 04:31:43;;;;;;;;;;;;;;;;;;4946083;29;19938;-81
2023/07/09 04:34:10;;;;;;;;;;;;;;;;;;4961519;28;19930;-81
2023/07/09 04:36:38;;;;;;;;;;;;;;;;;;4946719;29;19938;-81
2023/07/09 04:39:05;;;;;;;;;;;;;;;;;;4948588;29;19930;-80
2023/07/09 04:41:33;;;;;;;;;;;;;;;;;;4947169;29;19935;-80
2023/07/09 04:44:00;;;;;;;;;;;;;;;;;;4946181;29;19931;-81
2023/07/09 04:46:28;;;;;;;;;;;;;;;;;;4945515;29;19934;-80
2023/07/09 04:49:00;;;;;;;;;;;;;;;;;;4948104;29;19942;-81
2023/07/09 04:51:28;;;;;;;;;;;;;;;;;;4953518;28;19955;-81
2023/07/09 04:53:56;;;;;;;;;;;;;;;;;;4948721;29;19942;-81
2023/07/09 04:56:29;;;;;;;;;;;;;;;;;;4961077;28;19941;-82
2023/07/09 04:59:02;;;;;;;;;;;;;;;;;;4944799;29;19938;-81
2023/07/09 05:01:29;;;;;;;;;;;;;;;;;;4944572;29;19942;-81
2023/07/09 05:03:57;;;;;;;;;;;;;;;;;;4938946;29;19931;-80
2023/07/09 05:06:24;;;;;;;;;;;;;;;;;;4958221;28;19938;-80
2023/07/09 05:08:52;;;;;;;;;;;;;;;;;;4959996;28;19930;-80
2023/07/09 05:11:24;;;;;;;;;;;;;;;;;;4962077;28;20417;-80
2023/07/09 05:13:52;;;;;;;;;;;;;;;;;;4945703;29;19926;-81
2023/07/09 05:16:19;;;;;;;;;;;;;;;;;;4946089;29;19930;-81
2023/07/09 05:18:47;;;;;;;;;;;;;;;;;;4947593;29;19942;-80
2023/07/09 05:21:15;;;;;;;;;;;;;;;;;;4946924;29;19930;-80
2023/07/09 05:23:42;;;;;;;;;;;;;;;;;;4958266;28;19937;-81
2023/07/09 05:26:10;;;;;;;;;;;;;;;;;;4946365;29;19935;-81
2023/07/09 05:28:39;;;;;;;;;;;;;;;;;;4945568;29;19930;-80
2023/07/09 05:31:12;;;;;;;;;;;;;;;;;;4954958;28;20795;-81
2023/07/09 05:33:40;;;;;;;;;;;;;;;;;;4944116;29;19939;-81
2023/07/09 05:36:15;;;;;;;;;;;;;;;;;;4946155;29;19938;-81
2023/07/09 05:38:48;;;;;;;;;;;;;;;;;;4945764;28;20389;-81
2023/07/09 05:41:17;;;;;;;;;;;;;;;;;;4945694;29;19930;-81
2023/07/09 05:43:44;;;;;;;;;;;;;;;;;;4946992;28;19930;-81
2023/07/09 05:46:12;;;;;;;;;;;;;;;;;;4949195;29;19952;-81
2023/07/09 05:48:44;;;;;;;;;;;;;;;;;;4945087;29;19931;-81
2023/07/09 05:51:12;;;;;;;;;;;;;;;;;;4964307;28;20383;-82
2023/07/09 05:53:39;;;;;;;;;;;;;;;;;;4947457;29;19945;-82
2023/07/09 05:56:12;;;;;;;;;;;;;;;;;;4947229;28;19930;-82
2023/07/09 05:58:40;;;;;;;;;;;;;;;;;;4949944;29;19930;-82
2023/07/09 06:01:12;;;;;;;;;;;;;;;;;;4949003;29;20330;-82
2023/07/09 06:03:40;;;;;;;;;;;;;;;;;;4948558;29;19941;-81
2023/07/09 06:06:07;;;;;;;;;;;;;;;;;;4961813;28;20368;-82
2023/07/09 06:08:35;;;;;;;;;;;;;;;;;;4949282;29;19930;-82
2023/07/09 06:11:02;;;;;;;;;;;;;;;;;;4942402;29;19930;-82
2023/07/09 06:13:30;;;;;;;;;;;;;;;;;;4949769;29;19946;-81
2023/07/09 06:15:58;;;;;;;;;;;;;;;;;;4948993;29;19931;-81
2023/07/09 06:18:28;;;;;;;;;;;;;;;;;;4950606;29;19961;-82
2023/07/09 06:20:56;;;;;;;;;;;;;;;;;;4946024;29;19930;-82
2023/07/09 06:23:23;;;;;;;;;;;;;;;;;;4960577;28;19927;-82
2023/07/09 06:25:56;;;;;;;;;;;;;;;;;;4946463;29;19941;-82
2023/07/09 06:28:24;;;;;;;;;;;;;;;;;;4963654;28;19930;-82
2023/07/09 06:30:51;;;;;;;;;;;;;;;;;;4949701;29;19937;-81
2023/07/09 06:33:24;;;;;;;;;;;;;;;;;;4947202;29;20758;-82
2023/07/09 06:35:51;;;;;;;;;;;;;;;;;;4950509;29;19930;-81
2023/07/09 06:38:19;;;;;;;;;;;;;;;;;;4964180;28;20761;-82
2023/07/09 06:40:52;;;;;;;;;;;;;;;;;;4948802;29;20389;-81
2023/07/09 06:43:19;;;;;;;;;;;;;;;;;;4949618;29;19930;-82
2023/07/09 06:45:52;;;;;;;;;;;;;;;;;;4947597;29;19937;-81
2023/07/09 06:48:19;;;;;;;;;;;;;;;;;;4949588;29;19926;-81
2023/07/09 06:50:47;;;;;;;;;;;;;;;;;;4949384;29;19930;-81
2023/07/09 06:53:15;;;;;;;;;;;;;;;;;;4948682;29;19926;-80
2023/07/09 06:55:48;;;;;;;;;;;;;;;;;;4946542;28;20371;-81
2023/07/09 06:58:16;;;;;;;;;;;;;;;;;;4946745;29;19930;-81
2023/07/09 07:00:44;;;;;;;;;;;;;;;;;;4941918;29;20295;-81
2023/07/09 07:03:11;;;;;;;;;;;;;;;;;;4961451;28;19930;-81
2023/07/09 07:05:40;;;;;;;;;;;;;;;;;;4948182;29;19931;-82
2023/07/09 07:08:07;;;;;;;;;;;;;;;;;;4945179;29;20670;-82
2023/07/09 07:10:40;;;;;;;;;;;;;;;;;;4943739;29;19927;-82
2023/07/09 07:13:13;;;;;;;;;;;;;;;;;;4944877;29;19938;-82
2023/07/09 07:15:40;;;;;;;;;;;;;;;;;;4946346;29;19942;-81
2023/07/09 07:18:13;;;;;;;;;;;;;;;;;;4960809;28;20287;-82
2023/07/09 07:20:40;;;;;;;;;;;;;;;;;;4948839;29;19937;-81
2023/07/09 07:23:08;;;;;;;;;;;;;;;;;;4948266;29;20279;-79
2023/07/09 07:25:35;;;;;;;;;;;;;;;;;;4947167;29;19930;-80
2023/07/09 07:28:03;;;;;;;;;;;;;;;;;;4937290;29;19938;-81
2023/07/09 07:30:36;;;;;;;;;;;;;;;;;;4944360;29;19952;-80
2023/07/09 07:33:03;;;;;;;;;;;;;;;;;;4945657;29;19930;-82
2023/07/09 07:35:31;;;;;;;;;;;;;;;;;;4948254;29;20360;-81
2023/07/09 07:38:03;;;;;;;;;;;;;;;;;;4956582;28;19930;-81
2023/07/09 07:40:31;;;;;;;;;;;;;;;;;;4951032;28;19935;-81
2023/07/09 07:42:58;;;;;;;;;;;;;;;;;;4955137;28;20390;-84
2023/07/09 07:45:31;;;;;;;;;;;;;;;;;;4938390;29;19931;-81
2023/07/09 07:48:03;;;;;;;;;;;;;;;;;;4940607;28;19930;-79
2023/07/09 07:50:34;;;;;;;;;;;;;;;;;;4952211;28;19930;-80
2023/07/09 07:53:07;;;;;;;;;;;;;;;;;;4954835;28;19931;-79
2023/07/09 07:55:40;;;;;;;;;;;;;;;;;;4938631;28;19954;-81
2023/07/09 07:58:12;;;;;;;;;;;;;;;;;;4937321;29;19930;-79
2023/07/09 08:00:45;;;;;;;;;;;;;;;;;;4955538;28;21782;-79
2023/07/09 08:03:17;;;;;;;;;;;;;;;;;;4951300;28;19931;-80
2023/07/09 08:05:45;;;;;;;;;;;;;;;;;;4937426;29;19931;-80
2023/07/09 08:08:12;;;;;;;;;;;;;;;;;;4934663;28;20291;-80
2023/07/09 08:10:40;;;;;;;;;;;;;;;;;;4937792;29;19934;-79
2023/07/09 08:13:07;;;;;;;;;;;;;;;;;;4940908;29;20295;-80
2023/07/09 08:15:35;;;;;;;;;;;;;;;;;;4943351;29;20374;-81
2023/07/09 08:18:03;;;;;;;;;;;;;;;;;;4954728;28;19942;-80
2023/07/09 08:20:32;;;;;;;;;;;;;;;;;;4938381;29;19931;-82
2023/07/09 08:23:00;;;;;;;;;;;;;;;;;;4940652;29;19931;-81
2023/07/09 08:25:27;;;;;;;;;;;;;;;;;;4939675;29;19942;-80
2023/07/09 08:28:00;;;;;;;;;;;;;;;;;;4939924;29;19930;-80
2023/07/09 08:30:27;;;;;;;;;;;;;;;;;;4942265;29;20303;-80
2023/07/09 08:33:00;;;;;;;;;;;;;;;;;;4944417;29;19934;-80
2023/07/09 08:35:33;;;;;;;;;;;;;;;;;;4934569;29;21263;-81
2023/07/09 08:38:00;;;;;;;;;;;;;;;;;;4942690;29;20284;-80
2023/07/09 08:40:28;;;;;;;;;;;;;;;;;;4956594;28;19931;-81
2023/07/09 08:42:56;;;;;;;;;;;;;;;;;;4959296;28;19930;-81
2023/07/09 08:45:23;;;;;;;;;;;;;;;;;;4939353;29;20976;-80
2023/07/09 08:47:51;;;;;;;;;;;;;;;;;;4942359;29;20327;-82
2023/07/09 08:50:19;;;;;;;;;;;;;;;;;;4942673;29;19937;-80
2023/07/09 08:52:46;;;;;;;;;;;;;;;;;;4941602;29;19937;-81
2023/07/09 08:55:14;;;;;;;;;;;;;;;;;;4944469;29;19930;-80
2023/07/09 08:57:42;;;;;;;;;;;;;;;;;;4960028;28;19934;-81
2023/07/09 09:00:14;;;;;;;;;;;;;;;;;;4959284;28;20400;-81
2023/07/09 09:02:42;;;;;;;;;;;;;;;;;;4946406;29;19931;-79
2023/07/09 09:05:09;;;;;;;;;;;;;;;;;;4956943;28;20330;-83
2023/07/09 09:07:37;;;;;;;;;;;;;;;;;;4948357;28;19931;-81
2023/07/09 09:10:09;;;;;;;;;;;;;;;;;;4939762;29;19934;-81
2023/07/09 09:12:37;;;;;;;;;;;;;;;;;;4938373;29;19931;-84
2023/07/09 09:15:09;;;;;;;;;;;;;;;;;;4946484;29;19927;-80
2023/07/09 09:17:37;;;;;;;;;;;;;;;;;;4962160;28;20443;-81
2023/07/09 09:20:05;;;;;;;;;;;;;;;;;;4947417;29;19946;-82
2023/07/09 09:22:37;;;;;;;;;;;;;;;;;;4948679;28;19938;-81
2023/07/09 09:25:05;;;;;;;;;;;;;;;;;;4949947;29;20347;-82
2023/07/09 09:27:32;;;;;;;;;;;;;;;;;;4963455;28;20434;-80
2023/07/09 09:30:05;;;;;;;;;;;;;;;;;;4960158;28;19926;-80
2023/07/09 09:32:37;;;;;;;;;;;;;;;;;;4945517;29;20631;-81
2023/07/09 09:35:05;;;;;;;;;;;;;;;;;;4944092;29;19937;-78
2023/07/09 09:37:37;;;;;;;;;;;;;;;;;;4947233;29;19937;-80
2023/07/09 09:40:05;;;;;;;;;;;;;;;;;;4947558;29;19931;-79
2023/07/09 09:42:33;;;;;;;;;;;;;;;;;;4961496;28;19941;-81
2023/07/09 09:45:00;;;;;;;;;;;;;;;;;;4948856;29;19931;-81
2023/07/09 09:47:28;;;;;;;;;;;;;;;;;;4948480;29;19950;-81
2023/07/09 09:49:55;;;;;;;;;;;;;;;;;;4921004;28;19949;-80
2023/07/09 09:52:28;;;;;;;;;;;;;;;;;;4932538;29;19930;-81
2023/07/09 09:54:56;;;;;;;;;;;;;;;;;;4908230;29;19935;-80
2023/07/09 09:57:24;;;;;;;;;;;;;;;;;;4919043;29;21208;-80
2023/07/09 09:59:56;;;;;;;;;;;;;;;;;;4908316;29;19941;-81
2023/07/09 10:02:32;;;;;;;;;;;;;;;;;;4920112;28;19946;-78
2023/07/09 10:05:07;;;;;;;;;;;;;;;;;;4914076;29;19934;-79
2023/07/09 10:07:35;;;;;;;;;;;;;;;;;;4907761;29;19943;-80
2023/07/09 10:10:03;;;;;;;;;;;;;;;;;;4907276;29;19997;-80
2023/07/09 10:12:30;;;;;;;;;;;;;;;;;;4908426;28;19934;-79
2023/07/09 10:14:58;;;;;;;;;;;;;;;;;;4916066;29;19935;-81
2023/07/09 10:17:31;;;;;;;;;;;;;;;;;;4919021;29;19931;-80
2023/07/09 10:19:58;;;;;;;;;;;;;;;;;;4921864;28;19942;-81
2023/07/09 10:22:31;;;;;;;;;;;;;;;;;;4925781;28;19945;-80
2023/07/09 10:24:59;;;;;;;;;;;;;;;;;;4912931;29;20457;-79
2023/07/09 10:27:26;;;;;;;;;;;;;;;;;;4915589;29;19946;-79
2023/07/09 10:29:54;;;;;;;;;;;;;;;;;;4934585;28;19946;-80
2023/07/09 10:32:27;;;;;;;;;;;;;;;;;;4961560;28;19938;-79
2023/07/09 10:34:59;;;;;;;;;;;;;;;;;;4948495;29;19937;-79
2023/07/09 10:37:27;;;;;;;;;;;;;;;;;;4938692;29;19930;-80
2023/07/09 10:39:54;;;;;;;;;;;;;;;;;;4959777;28;20299;-81
2023/07/09 10:42:27;;;;;;;;;;;;;;;;;;4945947;29;19934;-81
2023/07/09 10:44:54;;;;;;;;;;;;;;;;;;4947439;29;19942;-81
2023/07/09 10:47:22;;;;;;;;;;;;;;;;;;4944028;29;19960;-81
2023/07/09 10:49:54;;;;;;;;;;;;;;;;;;4960071;28;19935;-81
2023/07/09 10:52:22;;;;;;;;;;;;;;;;;;4946843;29;20702;-79
2023/07/09 10:54:55;;;;;;;;;;;;;;;;;;4944528;29;19935;-81
2023/07/09 10:57:22;;;;;;;;;;;;;;;;;;4946145;29;19927;-80
2023/07/09 10:59:55;;;;;;;;;;;;;;;;;;4944229;29;20338;-82
2023/07/09 11:02:27;;;;;;;;;;;;;;;;;;4946785;29;19950;-80
2023/07/09 11:04:55;;;;;;;;;;;;;;;;;;4961530;28;20387;-80
2023/07/09 11:07:22;;;;;;;;;;;;;;;;;;4947434;29;19930;-81
2023/07/09 11:09:52;;;;;;;;;;;;;;;;;;4939965;29;19937;-80
2023/07/09 11:12:20;;;;;;;;;;;;;;;;;;4946899;29;19927;-81
2023/07/09 11:14:47;;;;;;;;;;;;;;;;;;4939837;29;19927;-81
2023/07/09 11:17:15;;;;;;;;;;;;;;;;;;4961282;28;19941;-81
2023/07/09 11:19:42;;;;;;;;;;;;;;;;;;4945033;29;19931;-80
2023/07/09 11:22:11;;;;;;;;;;;;;;;;;;4962177;28;19930;-82
2023/07/09 11:24:38;;;;;;;;;;;;;;;;;;4945305;29;19938;-80
2023/07/09 11:27:06;;;;;;;;;;;;;;;;;;4954869;28;19953;-82
2023/07/09 11:29:34;;;;;;;;;;;;;;;;;;4959595;28;19930;-82
2023/07/09 11:32:06;;;;;;;;;;;;;;;;;;4941010;29;19931;-80
2023/07/09 11:34:34;;;;;;;;;;;;;;;;;;4959248;28;19941;-82
2023/07/09 11:37:06;;;;;;;;;;;;;;;;;;4945492;29;19931;-82
2023/07/09 11:39:34;;;;;;;;;;;;;;;;;;4958070;28;20390;-81
2023/07/09 11:42:07;;;;;;;;;;;;;;;;;;4959312;28;19930;-80
2023/07/09 11:44:35;;;;;;;;;;;;;;;;;;4944011;29;19934;-81
2023/07/09 11:47:07;;;;;;;;;;;;;;;;;;4944525;29;19930;-81
2023/07/09 11:49:40;;;;;;;;;;;;;;;;;;4942900;29;20280;-81
2023/07/09 11:52:07;;;;;;;;;;;;;;;;;;4939560;29;19933;-80
2023/07/09 11:54:40;;;;;;;;;;;;;;;;;;4941562;29;19930;-80
2023/07/09 11:57:12;;;;;;;;;;;;;;;;;;4943156;29;19937;-80
2023/07/09 11:59:45;;;;;;;;;;;;;;;;;;4944025;28;19935;-81
2023/07/09 12:02:17;;;;;;;;;;;;;;;;;;4937195;29;20314;-81
2023/07/09 12:04:45;;;;;;;;;;;;;;;;;;4940228;29;19938;-81
2023/07/09 12:07:13;;;;;;;;;;;;;;;;;;4958854;28;19931;-80
2023/07/09 12:09:40;;;;;;;;;;;;;;;;;;4941428;29;19935;-81
2023/07/09 12:12:08;;;;;;;;;;;;;;;;;;4958662;28;19949;-79
2023/07/09 12:14:40;;;;;;;;;;;;;;;;;;4947338;29;19930;-81
2023/07/09 12:17:08;;;;;;;;;;;;;;;;;;4950528;28;19931;-81
2023/07/09 12:19:35;;;;;;;;;;;;;;;;;;4942705;29;19934;-81
2023/07/09 12:22:03;;;;;;;;;;;;;;;;;;4940964;29;20870;-81
2023/07/09 12:24:31;;;;;;;;;;;;;;;;;;4943608;29;19938;-82
2023/07/09 12:26:58;;;;;;;;;;;;;;;;;;4942747;29;19927;-81
2023/07/09 12:29:31;;;;;;;;;;;;;;;;;;4941225;29;19931;-81
2023/07/09 12:31:58;;;;;;;;;;;;;;;;;;4941914;29;19930;-81
2023/07/09 12:34:31;;;;;;;;;;;;;;;;;;4955562;28;20325;-81
2023/07/09 12:36:58;;;;;;;;;;;;;;;;;;4941702;29;19952;-79
2023/07/09 12:39:31;;;;;;;;;;;;;;;;;;4937306;29;20315;-78
2023/07/09 12:42:04;;;;;;;;;;;;;;;;;;4936636;29;19937;-79
2023/07/09 12:44:31;;;;;;;;;;;;;;;;;;4950352;28;20402;-81
2023/07/09 12:47:04;;;;;;;;;;;;;;;;;;4955870;28;20644;-81
2023/07/09 12:49:37;;;;;;;;;;;;;;;;;;4951242;28;19927;-81
2023/07/09 12:52:04;;;;;;;;;;;;;;;;;;4935824;28;19930;-81
2023/07/09 12:54:32;;;;;;;;;;;;;;;;;;4942207;28;19941;-81
2023/07/09 12:56:59;;;;;;;;;;;;;;;;;;4940302;29;19930;-81
2023/07/09 12:59:27;;;;;;;;;;;;;;;;;;4938727;29;19927;-81
2023/07/09 13:01:59;;;;;;;;;;;;;;;;;;4940494;29;19930;-80
2023/07/09 13:04:32;;;;;;;;;;;;;;;;;;4941545;29;19941;-80
2023/07/09 13:07:00;;;;;;;;;;;;;;;;;;4942760;29;20007;-80
2023/07/09 13:09:33;;;;;;;;;;;;;;;;;;4936982;29;19934;-81
2023/07/09 13:12:00;;;;;;;;;;;;;;;;;;4945504;29;19935;-80
2023/07/09 13:14:28;;;;;;;;;;;;;;;;;;4945015;29;19935;-79
2023/07/09 13:16:55;;;;;;;;;;;;;;;;;;4942316;29;19934;-80
2023/07/09 13:19:28;;;;;;;;;;;;;;;;;;4943463;29;19934;-80
2023/07/09 13:22:01;;;;;;;;;;;;;;;;;;4946961;29;19937;-80
2023/07/09 13:24:33;;;;;;;;;;;;;;;;;;4943272;29;19934;-80
2023/07/09 13:27:01;;;;;;;;;;;;;;;;;;4942035;29;19957;-80
2023/07/09 13:29:28;;;;;;;;;;;;;;;;;;4945680;29;19931;-81
2023/07/09 13:31:57;;;;;;;;;;;;;;;;;;4953368;28;19934;-80
2023/07/09 13:34:24;;;;;;;;;;;;;;;;;;4942339;29;19999;-80
2023/07/09 13:36:53;;;;;;;;;;;;;;;;;;4940575;28;19938;-80
2023/07/09 13:39:23;;;;;;;;;;;;;;;;;;4943580;29;19931;-80
2023/07/09 13:41:50;;;;;;;;;;;;;;;;;;4941401;29;19938;-80
2023/07/09 13:44:18;;;;;;;;;;;;;;;;;;4957338;28;19937;-80
2023/07/09 13:46:45;;;;;;;;;;;;;;;;;;4940679;29;20704;-80
2023/07/09 13:49:18;;;;;;;;;;;;;;;;;;4944254;29;19935;-79
2023/07/09 13:51:51;;;;;;;;;;;;;;;;;;4943764;29;19937;-79
2023/07/09 13:54:18;;;;;;;;;;;;;;;;;;4944384;29;19938;-81
2023/07/09 13:56:51;;;;;;;;;;;;;;;;;;4944217;29;19942;-80
2023/07/09 13:59:18;;;;;;;;;;;;;;;;;;4942282;28;20480;-80
2023/07/09 14:01:46;;;;;;;;;;;;;;;;;;4946783;29;19938;-81
2023/07/09 14:04:14;;;;;;;;;;;;;;;;;;4941664;29;19946;-82
2023/07/09 14:06:41;;;;;;;;;;;;;;;;;;4943094;29;19937;-80
2023/07/09 14:09:14;;;;;;;;;;;;;;;;;;4957768;28;20276;-80
2023/07/09 14:11:46;;;;;;;;;;;;;;;;;;4947512;29;19941;-81
2023/07/09 14:14:19;;;;;;;;;;;;;;;;;;4944593;29;19931;-81
2023/07/09 14:16:46;;;;;;;;;;;;;;;;;;4943624;29;20496;-79
2023/07/09 14:19:14;;;;;;;;;;;;;;;;;;4957882;28;19934;-81
2023/07/09 14:21:42;;;;;;;;;;;;;;;;;;4959411;28;19930;-81
2023/07/09 14:24:14;;;;;;;;;;;;;;;;;;4940023;29;19941;-80
2023/07/09 14:26:42;;;;;;;;;;;;;;;;;;4945255;28;19938;-81
2023/07/09 14:29:09;;;;;;;;;;;;;;;;;;4945722;29;19953;-80
2023/07/09 14:31:37;;;;;;;;;;;;;;;;;;4947881;28;19934;-81
2023/07/09 14:34:11;;;;;;;;;;;;;;;;;;4942645;29;19930;-80
2023/07/09 14:36:38;;;;;;;;;;;;;;;;;;4958984;28;20375;-80
2023/07/09 14:39:06;;;;;;;;;;;;;;;;;;4941893;29;19941;-80
2023/07/09 14:41:38;;;;;;;;;;;;;;;;;;4960455;28;19953;-79
2023/07/09 14:44:06;;;;;;;;;;;;;;;;;;4961648;28;19941;-80
2023/07/09 14:46:34;;;;;;;;;;;;;;;;;;4942952;29;19933;-79
2023/07/09 14:49:01;;;;;;;;;;;;;;;;;;4960620;28;19951;-79
2023/07/09 14:51:29;;;;;;;;;;;;;;;;;;4944391;29;19937;-80
2023/07/09 14:53:56;;;;;;;;;;;;;;;;;;4939124;28;20402;-80
2023/07/09 14:56:24;;;;;;;;;;;;;;;;;;4946085;29;19926;-79
2023/07/09 14:58:51;;;;;;;;;;;;;;;;;;4940858;29;19961;-79
2023/07/09 15:01:24;;;;;;;;;;;;;;;;;;4940401;29;19937;-80
2023/07/09 15:03:52;;;;;;;;;;;;;;;;;;4944079;28;19930;-80
2023/07/09 15:06:24;;;;;;;;;;;;;;;;;;4943936;29;19941;-79
2023/07/09 15:08:53;;;;;;;;;;;;;;;;;;4938239;29;19942;-79
2023/07/09 15:11:20;;;;;;;;;;;;;;;;;;4942192;29;20010;-77
2023/07/09 15:13:48;;;;;;;;;;;;;;;;;;4941719;28;19930;-79
2023/07/09 15:16:20;;;;;;;;;;;;;;;;;;4937934;28;19942;-80
2023/07/09 15:18:48;;;;;;;;;;;;;;;;;;4935339;29;19961;-81
2023/07/09 15:21:15;;;;;;;;;;;;;;;;;;4940779;29;19937;-80
2023/07/09 15:23:48;;;;;;;;;;;;;;;;;;4940583;29;19931;-80
2023/07/09 15:26:16;;;;;;;;;;;;;;;;;;4942295;28;19931;-80
2023/07/09 15:28:50;;;;;;;;;;;;;;;;;;4940529;29;19937;-80
2023/07/09 15:31:22;;;;;;;;;;;;;;;;;;4940432;29;19931;-78
2023/07/09 15:33:55;;;;;;;;;;;;;;;;;;4943897;28;19930;-79
2023/07/09 15:36:23;;;;;;;;;;;;;;;;;;4943173;29;19938;-79
2023/07/09 15:38:55;;;;;;;;;;;;;;;;;;4942800;29;20458;-79
2023/07/09 15:41:28;;;;;;;;;;;;;;;;;;4944480;29;19957;-79
2023/07/09 15:43:55;;;;;;;;;;;;;;;;;;4941690;29;19930;-78
2023/07/09 15:46:28;;;;;;;;;;;;;;;;;;4940916;29;19934;-80
2023/07/09 15:48:55;;;;;;;;;;;;;;;;;;4939166;29;19941;-79
2023/07/09 15:51:28;;;;;;;;;;;;;;;;;;4938923;29;19935;-78
2023/07/09 15:53:55;;;;;;;;;;;;;;;;;;4941802;29;19930;-79
2023/07/09 15:56:23;;;;;;;;;;;;;;;;;;4938734;29;19930;-79
2023/07/09 15:58:51;;;;;;;;;;;;;;;;;;4938234;29;19937;-81
2023/07/09 16:01:19;;;;;;;;;;;;;;;;;;4956698;28;20314;-80
2023/07/09 16:03:52;;;;;;;;;;;;;;;;;;4941670;29;19933;-78
2023/07/09 16:06:19;;;;;;;;;;;;;;;;;;4941623;29;20311;-81
2023/07/09 16:08:47;;;;;;;;;;;;;;;;;;4949410;28;19931;-79
2023/07/09 16:11:14;;;;;;;;;;;;;;;;;;4960113;28;19935;-80
2023/07/09 16:13:42;;;;;;;;;;;;;;;;;;4941819;29;20331;-79
2023/07/09 16:16:09;;;;;;;;;;;;;;;;;;4939949;29;19934;-79
2023/07/09 16:18:37;;;;;;;;;;;;;;;;;;4939701;29;19930;-80
2023/07/09 16:21:04;;;;;;;;;;;;;;;;;;4936114;28;20730;-79
2023/07/09 16:23:32;;;;;;;;;;;;;;;;;;4955554;28;19931;-81
2023/07/09 16:25:59;;;;;;;;;;;;;;;;;;4956723;28;19927;-80
2023/07/09 16:28:32;;;;;;;;;;;;;;;;;;4944145;28;19930;-81
2023/07/09 16:31:00;;;;;;;;;;;;;;;;;;4939612;29;19933;-81
2023/07/09 16:33:27;;;;;;;;;;;;;;;;;;4941539;29;19935;-80
2023/07/09 16:36:03;;;;;;;;;;;;;;;;;;4943898;29;19941;-81
2023/07/09 16:38:31;;;;;;;;;;;;;;;;;;4921153;29;19934;-79
2023/07/09 16:40:59;;;;;;;;;;;;;;;;;;4901906;29;19935;-79
2023/07/09 16:43:27;;;;;;;;;;;;;;;;;;4899646;29;19935;-78
2023/07/09 16:45:55;;;;;;;;;;;;;;;;;;4902732;29;19942;-80
2023/07/09 16:48:28;;;;;;;;;;;;;;;;;;4909623;28;19949;-81
2023/07/09 16:51:00;;;;;;;;;;;;;;;;;;4899849;29;19935;-79
2023/07/09 16:53:33;;;;;;;;;;;;;;;;;;4903847;28;19934;-80
2023/07/09 16:56:05;;;;;;;;;;;;;;;;;;4897918;28;19965;-80
2023/07/09 16:58:33;;;;;;;;;;;;;;;;;;4904124;29;19935;-79